Time;durP1;ratioP1;P1;durP2;ratioP2;P2;SDS_P1;SDS_P2;PMS_P1;PMS_P2;Temp;Humidity;BMP_temperature;BMP_pressure;BME280_temperature;BME280_humidity;BME280_pressure;Samples;Min_cycle;Max_cycle;Signal;HPM_P1;HPM_P2
2022/10/11 00:02:22;;;;;;;12.63;5.90;;;;;;;;;;5051348;28;20028;-76
2022/10/11 00:04:49;;;;;;;15.05;5.47;;;;;;;;;;5051225;28;20397;-76
2022/10/11 00:07:16;;;;;;;14.90;6.68;;;;;;;;;;5049786;28;20129;-76
2022/10/11 00:09:42;;;;;;;13.50;4.70;;;;;;;;;;5067844;28;20021;-76
2022/10/11 00:12:09;;;;;;;15.25;6.10;;;;;;;;;;5063545;28;20194;-76
2022/10/11 00:14:35;;;;;;;9.43;4.63;;;;;;;;;;5050391;28;20025;-76
2022/10/11 00:17:01;;;;;;;12.90;4.50;;;;;;;;;;5053344;28;20822;-77
2022/10/11 00:19:27;;;;;;;10.98;5.07;;;;;;;;;;5053140;28;20033;-76
2022/10/11 00:21:53;;;;;;;14.10;6.53;;;;;;;;;;5067999;28;20033;-76
2022/10/11 00:24:19;;;;;;;13.35;6.72;;;;;;;;;;5073321;28;20044;-76
2022/10/11 00:26:46;;;;;;;10.70;4.65;;;;;;;;;;5071821;28;20032;-76
2022/10/11 00:29:12;;;;;;;12.57;5.05;;;;;;;;;;5055949;28;20349;-76
2022/10/11 00:31:39;;;;;;;12.00;4.32;;;;;;;;;;5071919;28;20024;-76
2022/10/11 00:34:05;;;;;;;15.70;5.00;;;;;;;;;;5070175;28;20712;-76
2022/10/11 00:36:31;;;;;;;7.22;4.50;;;;;;;;;;5055590;28;20024;-76
2022/10/11 00:38:58;;;;;;;8.63;3.67;;;;;;;;;;5068816;28;20021;-77
2022/10/11 00:41:24;;;;;;;12.63;4.40;;;;;;;;;;5061600;28;20078;-76
2022/10/11 00:44:09;;;;;;;7.63;3.97;;;;;;;;;;5060000;28;20031;-76
2022/10/11 00:46:35;;;;;;;8.98;4.15;;;;;;;;;;5066543;28;20381;-76
2022/10/11 00:49:06;;;;;;;14.63;4.38;;;;;;;;;;5068766;28;20039;-77
2022/10/11 00:51:35;;;;;;;8.32;3.97;;;;;;;;;;5047292;28;20059;-76
2022/10/11 00:54:02;;;;;;;11.55;4.28;;;;;;;;;;5086885;28;20468;-76
2022/10/11 00:56:35;;;;;;;9.88;3.95;;;;;;;;;;5062735;28;20028;-76
2022/10/11 00:59:03;;;;;;;8.38;3.47;;;;;;;;;;5056554;28;20511;-76
2022/10/11 01:01:30;;;;;;;9.27;3.90;;;;;;;;;;5067310;28;20035;-76
2022/10/11 01:03:56;;;;;;;12.27;3.88;;;;;;;;;;5080651;28;20582;-77
2022/10/11 01:06:22;;;;;;;14.73;4.55;;;;;;;;;;5052527;28;20024;-76
2022/10/11 01:08:50;;;;;;;6.45;3.30;;;;;;;;;;5068814;28;20116;-76
2022/10/11 01:11:17;;;;;;;13.27;4.20;;;;;;;;;;5063616;28;20036;-76
2022/10/11 01:14:07;;;;;;;10.25;3.70;;;;;;;;;;5059889;28;20050;-76
2022/10/11 01:16:42;;;;;;;11.95;4.32;;;;;;;;;;5059221;28;20091;-76
2022/10/11 01:19:28;;;;;;;11.10;4.85;;;;;;;;;;5068076;28;20084;-76
2022/10/11 01:21:55;;;;;;;10.18;3.90;;;;;;;;;;5012281;28;20086;-77
2022/10/11 01:24:33;;;;;;;11.52;4.72;;;;;;;;;;5052665;28;20041;-77
2022/10/11 01:27:02;;;;;;;12.93;4.35;;;;;;;;;;5071148;28;20035;-76
2022/10/11 01:29:58;;;;;;;8.20;4.07;;;;;;;;;;5062933;28;20040;-76
2022/10/11 01:32:24;;;;;;;11.73;4.35;;;;;;;;;;5059089;28;20505;-76
2022/10/11 01:35:08;;;;;;;10.75;4.35;;;;;;;;;;5046337;28;20033;-76
2022/10/11 01:37:36;;;;;;;15.23;4.75;;;;;;;;;;5076333;28;20020;-77
2022/10/11 01:40:05;;;;;;;10.75;4.03;;;;;;;;;;5061778;28;20485;-76
2022/10/11 01:42:32;;;;;;;14.57;4.40;;;;;;;;;;5065912;28;20028;-76
2022/10/11 01:44:59;;;;;;;12.23;4.75;;;;;;;;;;5048440;28;20065;-76
2022/10/11 01:47:25;;;;;;;10.50;3.85;;;;;;;;;;5069844;28;20047;-77
2022/10/11 01:49:53;;;;;;;9.95;4.13;;;;;;;;;;5050081;28;20040;-76
2022/10/11 01:52:20;;;;;;;15.40;4.53;;;;;;;;;;5070298;28;20150;-76
2022/10/11 01:54:52;;;;;;;7.15;3.35;;;;;;;;;;5051793;28;20181;-76
2022/10/11 01:57:37;;;;;;;7.30;4.25;;;;;;;;;;5064318;28;20031;-76
2022/10/11 02:00:20;;;;;;;8.80;4.07;;;;;;;;;;5050013;28;20084;-76
2022/10/11 02:02:58;;;;;;;8.25;3.83;;;;;;;;;;5066589;28;20039;-76
2022/10/11 02:05:24;;;;;;;9.73;4.80;;;;;;;;;;5065489;28;20039;-76
2022/10/11 02:07:50;;;;;;;11.95;5.93;;;;;;;;;;5051344;28;20036;-76
2022/10/11 02:10:19;;;;;;;8.65;4.40;;;;;;;;;;5070442;28;20033;-76
2022/10/11 02:12:53;;;;;;;11.25;4.88;;;;;;;;;;5061206;28;20497;-76
2022/10/11 02:15:20;;;;;;;9.02;4.05;;;;;;;;;;5050025;28;20039;-76
2022/10/11 02:17:49;;;;;;;10.05;4.22;;;;;;;;;;5084529;28;20056;-77
2022/10/11 02:20:18;;;;;;;17.48;5.78;;;;;;;;;;5048740;28;20043;-76
2022/10/11 02:22:45;;;;;;;11.25;4.32;;;;;;;;;;5044265;28;20075;-76
2022/10/11 02:25:15;;;;;;;10.00;4.13;;;;;;;;;;5043623;28;20478;-76
2022/10/11 02:27:43;;;;;;;6.32;4.80;;;;;;;;;;5042581;28;20036;-76
2022/10/11 02:30:10;;;;;;;8.27;4.90;;;;;;;;;;5049204;28;20040;-76
2022/10/11 02:32:39;;;;;;;10.07;3.72;;;;;;;;;;5047311;28;20037;-76
2022/10/11 02:35:05;;;;;;;10.30;4.65;;;;;;;;;;5046669;28;20036;-76
2022/10/11 02:37:31;;;;;;;8.20;4.32;;;;;;;;;;5049474;28;20029;-76
2022/10/11 02:39:57;;;;;;;12.48;4.55;;;;;;;;;;5050635;28;21889;-76
2022/10/11 02:42:29;;;;;;;8.95;4.32;;;;;;;;;;5049682;28;20457;-76
2022/10/11 02:44:59;;;;;;;10.30;4.40;;;;;;;;;;5053221;28;20044;-76
2022/10/11 02:47:29;;;;;;;10.20;3.78;;;;;;;;;;5056479;28;20123;-76
2022/10/11 02:49:56;;;;;;;7.20;4.35;;;;;;;;;;5052060;28;20481;-76
2022/10/11 02:52:22;;;;;;;11.98;4.50;;;;;;;;;;5053258;28;20385;-76
2022/10/11 02:54:48;;;;;;;9.30;4.07;;;;;;;;;;5050253;28;20367;-76
2022/10/11 02:57:14;;;;;;;11.43;4.40;;;;;;;;;;5054963;28;20107;-76
2022/10/11 02:59:40;;;;;;;12.02;4.43;;;;;;;;;;5049825;28;20025;-76
2022/10/11 03:02:06;;;;;;;13.48;4.40;;;;;;;;;;5053562;28;20024;-76
2022/10/11 03:04:32;;;;;;;14.15;5.55;;;;;;;;;;5052212;28;20119;-76
2022/10/11 03:06:58;;;;;;;15.27;6.32;;;;;;;;;;5050485;28;20534;-76
2022/10/11 03:09:25;;;;;;;9.90;6.28;;;;;;;;;;5047055;28;20114;-76
2022/10/11 03:11:51;;;;;;;9.52;4.97;;;;;;;;;;5053578;28;20025;-76
2022/10/11 03:14:17;;;;;;;8.68;4.13;;;;;;;;;;5055431;28;20040;-76
2022/10/11 03:16:43;;;;;;;9.65;4.60;;;;;;;;;;5046049;28;20032;-76
2022/10/11 03:19:09;;;;;;;8.18;3.97;;;;;;;;;;5047335;28;20028;-77
2022/10/11 03:21:35;;;;;;;9.85;4.80;;;;;;;;;;5046755;28;20032;-76
2022/10/11 03:24:02;;;;;;;9.18;4.47;;;;;;;;;;5044080;28;20092;-76
2022/10/11 03:26:28;;;;;;;12.00;4.40;;;;;;;;;;5059790;28;20032;-76
2022/10/11 03:28:54;;;;;;;9.57;4.47;;;;;;;;;;5057464;28;20473;-76
2022/10/11 03:31:22;;;;;;;14.30;4.38;;;;;;;;;;5054281;28;20192;-76
2022/10/11 03:33:48;;;;;;;9.20;4.40;;;;;;;;;;5044865;28;20021;-76
2022/10/11 03:36:16;;;;;;;9.10;3.72;;;;;;;;;;5029948;28;20060;-77
2022/10/11 03:38:42;;;;;;;8.40;3.85;;;;;;;;;;5049694;28;20022;-75
2022/10/11 03:41:08;;;;;;;9.05;4.13;;;;;;;;;;5047627;28;20033;-76
2022/10/11 03:43:34;;;;;;;12.18;5.03;;;;;;;;;;5057587;28;20021;-76
2022/10/11 03:46:00;;;;;;;6.82;3.85;;;;;;;;;;5050758;28;20028;-76
2022/10/11 03:48:26;;;;;;;14.43;4.25;;;;;;;;;;5045320;28;20036;-76
2022/10/11 03:50:52;;;;;;;9.50;3.97;;;;;;;;;;5041906;28;20550;-76
2022/10/11 03:53:18;;;;;;;7.78;4.35;;;;;;;;;;5040964;28;20027;-76
2022/10/11 03:55:45;;;;;;;13.57;4.35;;;;;;;;;;5039352;28;20055;-76
2022/10/11 03:58:11;;;;;;;8.63;4.05;;;;;;;;;;5042234;28;20032;-76
2022/10/11 04:00:37;;;;;;;12.52;3.80;;;;;;;;;;5048068;28;20025;-76
2022/10/11 04:03:03;;;;;;;9.07;3.85;;;;;;;;;;5047704;28;20057;-76
2022/10/11 04:05:30;;;;;;;6.18;3.55;;;;;;;;;;5048482;28;20124;-76
2022/10/11 04:07:56;;;;;;;11.75;4.47;;;;;;;;;;5051031;28;20058;-75
2022/10/11 04:10:22;;;;;;;9.88;4.65;;;;;;;;;;5048804;28;20037;-76
2022/10/11 04:12:48;;;;;;;10.73;4.82;;;;;;;;;;5047009;28;20083;-76
2022/10/11 04:15:15;;;;;;;7.10;3.63;;;;;;;;;;5049699;28;20432;-76
2022/10/11 04:17:41;;;;;;;10.07;3.97;;;;;;;;;;5061237;28;20025;-76
2022/10/11 04:20:08;;;;;;;8.38;3.58;;;;;;;;;;5051295;28;20653;-76
2022/10/11 04:22:34;;;;;;;10.00;3.38;;;;;;;;;;5056718;28;20715;-76
2022/10/11 04:25:00;;;;;;;7.40;4.38;;;;;;;;;;5023337;28;20028;-76
2022/10/11 04:27:27;;;;;;;9.95;3.88;;;;;;;;;;5031707;28;20033;-76
2022/10/11 04:29:53;;;;;;;7.38;3.80;;;;;;;;;;5033723;28;20167;-76
2022/10/11 04:32:19;;;;;;;9.20;3.40;;;;;;;;;;5023190;28;20025;-76
2022/10/11 04:34:45;;;;;;;7.05;3.95;;;;;;;;;;5028284;28;20017;-76
2022/10/11 04:37:11;;;;;;;8.05;3.92;;;;;;;;;;5034082;28;20033;-77
2022/10/11 04:39:37;;;;;;;6.68;3.28;;;;;;;;;;5025666;28;20467;-76
2022/10/11 04:42:04;;;;;;;7.63;3.13;;;;;;;;;;5028865;28;20029;-77
2022/10/11 04:44:30;;;;;;;13.07;3.35;;;;;;;;;;5032101;28;20029;-76
2022/10/11 04:46:56;;;;;;;8.48;3.20;;;;;;;;;;5039067;28;20025;-76
2022/10/11 04:49:22;;;;;;;7.85;3.45;;;;;;;;;;5031837;28;20044;-76
2022/10/11 04:51:49;;;;;;;11.60;2.70;;;;;;;;;;5029385;28;20033;-76
2022/10/11 04:54:15;;;;;;;11.98;4.28;;;;;;;;;;5027597;28;20029;-76
2022/10/11 04:56:41;;;;;;;9.82;3.80;;;;;;;;;;5032732;28;20136;-76
2022/10/11 04:59:07;;;;;;;10.10;3.10;;;;;;;;;;5026516;28;20037;-76
2022/10/11 05:01:34;;;;;;;8.70;3.20;;;;;;;;;;5023345;28;20018;-76
2022/10/11 05:04:00;;;;;;;8.25;3.30;;;;;;;;;;5023523;28;20116;-76
2022/10/11 05:06:26;;;;;;;7.22;2.70;;;;;;;;;;5022949;28;20021;-76
2022/10/11 05:08:52;;;;;;;9.00;3.55;;;;;;;;;;5024167;28;20065;-76
2022/10/11 05:11:18;;;;;;;8.27;3.15;;;;;;;;;;5026871;28;20175;-76
2022/10/11 05:13:45;;;;;;;7.10;3.80;;;;;;;;;;5028915;28;20057;-76
2022/10/11 05:16:11;;;;;;;6.85;2.97;;;;;;;;;;5030473;28;20029;-76
2022/10/11 05:18:37;;;;;;;6.80;3.53;;;;;;;;;;5028456;28;20445;-77
2022/10/11 05:21:05;;;;;;;6.80;2.67;;;;;;;;;;5033737;28;20367;-76
2022/10/11 05:23:31;;;;;;;10.52;3.30;;;;;;;;;;5048053;28;20494;-77
2022/10/11 05:25:58;;;;;;;6.68;3.30;;;;;;;;;;5049784;28;20397;-76
2022/10/11 05:28:24;;;;;;;5.55;2.67;;;;;;;;;;5042414;28;20036;-77
2022/10/11 05:30:50;;;;;;;11.73;2.65;;;;;;;;;;5049686;28;20060;-76
2022/10/11 05:33:16;;;;;;;4.63;2.78;;;;;;;;;;5051864;28;20033;-77
2022/10/11 05:35:42;;;;;;;6.72;3.13;;;;;;;;;;5042715;28;20035;-77
2022/10/11 05:38:09;;;;;;;7.22;3.00;;;;;;;;;;5047621;28;20064;-77
2022/10/11 05:40:36;;;;;;;6.05;3.30;;;;;;;;;;5042510;28;20025;-76
2022/10/11 05:43:02;;;;;;;14.00;3.78;;;;;;;;;;5047799;28;20447;-77
2022/10/11 05:45:28;;;;;;;7.15;3.10;;;;;;;;;;5049018;28;20026;-76
2022/10/11 05:47:54;;;;;;;6.80;2.38;;;;;;;;;;5053904;28;20104;-76
2022/10/11 05:50:21;;;;;;;5.95;2.85;;;;;;;;;;5046373;28;20486;-76
2022/10/11 05:52:47;;;;;;;14.45;3.40;;;;;;;;;;5049991;28;20024;-76
2022/10/11 05:55:13;;;;;;;8.77;3.20;;;;;;;;;;5046043;28;20032;-76
2022/10/11 05:57:39;;;;;;;10.07;3.67;;;;;;;;;;5038323;28;20037;-76
2022/10/11 06:00:06;;;;;;;11.40;3.03;;;;;;;;;;5044528;28;20707;-77
2022/10/11 06:02:33;;;;;;;6.80;3.33;;;;;;;;;;5039946;28;20098;-76
2022/10/11 06:04:59;;;;;;;7.60;2.60;;;;;;;;;;5047360;28;20103;-76
2022/10/11 06:07:25;;;;;;;9.48;3.33;;;;;;;;;;5043483;28;20148;-76
2022/10/11 06:09:51;;;;;;;8.55;4.05;;;;;;;;;;5035962;28;20033;-76
2022/10/11 06:12:17;;;;;;;6.55;2.42;;;;;;;;;;5037939;28;20493;-76
2022/10/11 06:14:43;;;;;;;8.02;3.67;;;;;;;;;;5044120;28;20025;-77
2022/10/11 06:17:10;;;;;;;9.00;3.60;;;;;;;;;;5051155;28;20024;-76
2022/10/11 06:19:36;;;;;;;8.57;3.40;;;;;;;;;;5039648;28;20029;-77
2022/10/11 06:22:02;;;;;;;11.02;2.80;;;;;;;;;;5057095;28;20717;-78
2022/10/11 06:24:28;;;;;;;4.90;2.60;;;;;;;;;;5057443;28;20071;-77
2022/10/11 06:26:54;;;;;;;8.98;2.70;;;;;;;;;;5062601;28;20036;-76
2022/10/11 06:29:21;;;;;;;9.73;2.90;;;;;;;;;;5055018;28;20028;-77
2022/10/11 06:31:47;;;;;;;10.52;3.05;;;;;;;;;;5074538;28;20029;-76
2022/10/11 06:34:14;;;;;;;7.80;2.67;;;;;;;;;;5067779;28;20372;-75
2022/10/11 06:36:40;;;;;;;7.28;3.35;;;;;;;;;;5064604;28;20059;-76
2022/10/11 06:39:07;;;;;;;5.13;2.22;;;;;;;;;;5047976;28;20037;-76
2022/10/11 06:41:33;;;;;;;10.23;2.80;;;;;;;;;;5054570;28;20158;-75
2022/10/11 06:43:59;;;;;;;8.25;3.30;;;;;;;;;;5056283;28;20028;-77
2022/10/11 06:46:26;;;;;;;6.38;3.15;;;;;;;;;;5050481;28;20094;-77
2022/10/11 06:48:52;;;;;;;6.18;2.50;;;;;;;;;;5064032;28;20653;-77
2022/10/11 06:51:20;;;;;;;7.43;2.72;;;;;;;;;;5056089;28;20017;-77
2022/10/11 06:53:54;;;;;;;11.48;2.60;;;;;;;;;;5071265;28;20025;-77
2022/10/11 06:56:21;;;;;;;10.82;3.42;;;;;;;;;;5068170;28;20120;-76
2022/10/11 06:58:47;;;;;;;9.32;2.95;;;;;;;;;;5063351;28;20027;-76
2022/10/11 07:01:17;;;;;;;8.80;2.80;;;;;;;;;;5043740;28;20035;-76
2022/10/11 07:03:44;;;;;;;10.93;2.85;;;;;;;;;;5064541;28;20031;-77
2022/10/11 07:06:12;;;;;;;4.97;2.08;;;;;;;;;;5056670;28;20031;-76
2022/10/11 07:08:38;;;;;;;6.45;2.90;;;;;;;;;;5070017;28;20586;-77
2022/10/11 07:11:08;;;;;;;14.98;3.10;;;;;;;;;;5050291;28;20056;-77
2022/10/11 07:13:35;;;;;;;5.63;2.40;;;;;;;;;;5060783;28;20373;-77
2022/10/11 07:16:04;;;;;;;7.43;3.15;;;;;;;;;;5066811;28;20056;-78
2022/10/11 07:18:31;;;;;;;9.93;3.10;;;;;;;;;;5076499;28;20028;-77
2022/10/11 07:20:57;;;;;;;7.65;2.70;;;;;;;;;;5066584;28;20024;-77
2022/10/11 07:23:23;;;;;;;12.93;2.90;;;;;;;;;;5042842;28;20080;-77
2022/10/11 07:25:53;;;;;;;10.95;2.50;;;;;;;;;;5069484;28;20038;-77
2022/10/11 07:28:20;;;;;;;6.13;2.60;;;;;;;;;;5069341;28;20024;-77
2022/10/11 07:30:46;;;;;;;10.43;3.15;;;;;;;;;;5056750;28;20382;-77
2022/10/11 07:33:12;;;;;;;11.05;2.75;;;;;;;;;;5051325;28;20435;-77
2022/10/11 07:35:38;;;;;;;10.73;3.05;;;;;;;;;;5050360;28;20009;-77
2022/10/11 07:38:04;;;;;;;7.65;2.95;;;;;;;;;;5068197;28;20024;-77
2022/10/11 07:40:31;;;;;;;10.20;2.72;;;;;;;;;;5067287;28;20013;-77
2022/10/11 07:42:57;;;;;;;6.95;2.50;;;;;;;;;;5050269;28;20025;-77
2022/10/11 07:45:24;;;;;;;9.25;2.88;;;;;;;;;;5073487;28;20093;-77
2022/10/11 07:47:50;;;;;;;5.97;3.85;;;;;;;;;;5066150;28;20029;-77
2022/10/11 07:50:16;;;;;;;7.78;2.42;;;;;;;;;;5055054;28;20024;-77
2022/10/11 07:52:42;;;;;;;15.45;3.58;;;;;;;;;;5075020;28;20477;-77
2022/10/11 07:55:09;;;;;;;10.02;2.55;;;;;;;;;;5064588;28;20021;-77
2022/10/11 07:57:35;;;;;;;15.07;3.05;;;;;;;;;;5070299;28;20025;-77
2022/10/11 08:00:01;;;;;;;6.95;2.95;;;;;;;;;;5050964;28;20463;-77
2022/10/11 08:02:27;;;;;;;12.25;2.50;;;;;;;;;;5064808;28;20030;-76
2022/10/11 08:04:53;;;;;;;13.20;3.30;;;;;;;;;;5064084;28;20375;-77
2022/10/11 08:07:19;;;;;;;10.80;3.08;;;;;;;;;;5054787;28;20028;-77
2022/10/11 08:09:45;;;;;;;9.60;3.60;;;;;;;;;;5060956;28;20029;-76
2022/10/11 08:12:11;;;;;;;7.82;3.00;;;;;;;;;;5050913;28;20059;-77
2022/10/11 08:14:40;;;;;;;9.52;3.67;;;;;;;;;;5069737;28;20025;-77
2022/10/11 08:17:06;;;;;;;8.23;3.72;;;;;;;;;;5062603;28;20110;-77
2022/10/11 08:19:32;;;;;;;12.43;3.15;;;;;;;;;;5067168;28;20025;-77
2022/10/11 08:21:58;;;;;;;4.15;2.40;;;;;;;;;;5052330;28;20545;-78
2022/10/11 08:24:25;;;;;;;9.27;2.85;;;;;;;;;;5057866;28;20020;-76
2022/10/11 08:26:51;;;;;;;8.27;2.60;;;;;;;;;;5067468;28;20037;-76
2022/10/11 08:29:18;;;;;;;10.63;3.33;;;;;;;;;;5055031;28;20037;-78
2022/10/11 08:31:44;;;;;;;6.43;3.45;;;;;;;;;;5061158;28;20025;-77
2022/10/11 08:34:10;;;;;;;7.30;3.15;;;;;;;;;;5062459;28;20036;-77
2022/10/11 08:36:37;;;;;;;10.82;2.90;;;;;;;;;;5072337;28;20020;-77
2022/10/11 08:39:04;;;;;;;9.85;3.08;;;;;;;;;;5068196;28;20025;-77
2022/10/11 08:41:30;;;;;;;8.27;2.70;;;;;;;;;;5063168;28;20031;-77
2022/10/11 08:44:15;;;;;;;10.32;3.00;;;;;;;;;;5073446;28;20028;-77
2022/10/11 08:46:43;;;;;;;12.30;3.90;;;;;;;;;;5056547;28;20035;-77
2022/10/11 08:49:11;;;;;;;10.05;3.35;;;;;;;;;;5058632;28;20295;-77
2022/10/11 08:51:37;;;;;;;9.98;4.13;;;;;;;;;;5057230;28;20435;-77
2022/10/11 08:54:13;;;;;;;11.95;3.17;;;;;;;;;;5058292;28;20500;-76
2022/10/11 08:56:40;;;;;;;9.88;3.28;;;;;;;;;;5078741;28;20111;-77
2022/10/11 08:59:06;;;;;;;11.30;2.97;;;;;;;;;;5053099;28;20060;-78
2022/10/11 09:01:32;;;;;;;8.20;2.97;;;;;;;;;;5069051;28;20018;-76
2022/10/11 09:03:59;;;;;;;10.60;2.92;;;;;;;;;;5055174;28;20036;-77
2022/10/11 09:06:34;;;;;;;6.75;3.38;;;;;;;;;;5066706;28;20028;-77
2022/10/11 09:09:06;;;;;;;6.03;2.72;;;;;;;;;;5070380;28;20447;-76
2022/10/11 09:11:38;;;;;;;7.60;3.05;;;;;;;;;;5087319;28;20024;-75
2022/10/11 09:14:18;;;;;;;12.77;4.47;;;;;;;;;;5057438;28;20107;-77
2022/10/11 09:16:50;;;;;;;12.15;3.97;;;;;;;;;;5076952;28;20703;-77
2022/10/11 09:19:22;;;;;;;14.15;3.95;;;;;;;;;;5055090;28;20048;-78
2022/10/11 09:21:56;;;;;;;9.50;3.25;;;;;;;;;;5045375;28;20119;-77
2022/10/11 09:24:44;;;;;;;10.85;3.22;;;;;;;;;;5067949;28;20059;-76
2022/10/11 09:27:10;;;;;;;12.30;3.47;;;;;;;;;;5052448;28;20028;-77
2022/10/11 09:29:48;;;;;;;6.70;3.53;;;;;;;;;;5053981;28;20072;-76
2022/10/11 09:32:16;;;;;;;11.13;3.58;;;;;;;;;;5060760;28;20114;-77
2022/10/11 09:34:42;;;;;;;8.23;2.75;;;;;;;;;;5050727;28;20027;-77
2022/10/11 09:37:11;;;;;;;15.27;4.30;;;;;;;;;;5052808;28;20120;-76
2022/10/11 09:39:43;;;;;;;11.80;3.10;;;;;;;;;;5044745;28;20028;-76
2022/10/11 09:42:11;;;;;;;13.30;3.80;;;;;;;;;;5060380;28;20020;-76
2022/10/11 09:44:38;;;;;;;5.20;2.53;;;;;;;;;;5065018;28;20078;-75
2022/10/11 09:47:05;;;;;;;11.45;3.20;;;;;;;;;;5063733;28;20078;-76
2022/10/11 09:49:35;;;;;;;8.82;2.78;;;;;;;;;;5066007;28;20509;-77
2022/10/11 09:52:02;;;;;;;7.88;2.70;;;;;;;;;;5048966;28;20029;-77
2022/10/11 09:54:39;;;;;;;8.80;3.55;;;;;;;;;;5047315;28;20085;-76
2022/10/11 09:57:05;;;;;;;7.97;3.45;;;;;;;;;;5063651;28;20028;-75
2022/10/11 09:59:33;;;;;;;7.60;2.47;;;;;;;;;;5071817;28;20039;-78
2022/10/11 10:02:12;;;;;;;14.90;3.67;;;;;;;;;;5061949;28;20020;-76
2022/10/11 10:04:53;;;;;;;8.68;2.58;;;;;;;;;;5045813;28;20055;-76
2022/10/11 10:07:20;;;;;;;8.05;2.95;;;;;;;;;;5067359;28;20036;-76
2022/10/11 10:09:46;;;;;;;8.32;2.40;;;;;;;;;;5048819;28;20024;-75
2022/10/11 10:12:20;;;;;;;5.70;2.47;;;;;;;;;;5050868;28;20024;-76
2022/10/11 10:14:54;;;;;;;6.78;3.17;;;;;;;;;;5062269;28;20029;-76
2022/10/11 10:17:20;;;;;;;6.45;2.45;;;;;;;;;;5052814;28;20032;-74
2022/10/11 10:19:51;;;;;;;7.72;3.30;;;;;;;;;;5065741;28;20040;-78
2022/10/11 10:22:19;;;;;;;5.15;2.70;;;;;;;;;;5057223;28;20024;-77
2022/10/11 10:24:46;;;;;;;12.38;2.67;;;;;;;;;;5067029;28;20028;-76
2022/10/11 10:27:23;;;;;;;11.27;3.67;;;;;;;;;;5072440;28;20033;-76
2022/10/11 10:30:07;;;;;;;11.68;3.05;;;;;;;;;;5081129;28;20423;-75
2022/10/11 10:32:46;;;;;;;12.52;3.35;;;;;;;;;;5060726;28;20123;-76
2022/10/11 10:35:15;;;;;;;7.13;3.08;;;;;;;;;;5048354;28;20031;-77
2022/10/11 10:37:52;;;;;;;9.80;3.13;;;;;;;;;;5059141;28;20024;-77
2022/10/11 10:40:23;;;;;;;6.78;2.40;;;;;;;;;;5064144;28;20414;-76
2022/10/11 10:42:50;;;;;;;8.90;2.53;;;;;;;;;;5071855;28;20033;-76
2022/10/11 10:45:16;;;;;;;9.45;2.67;;;;;;;;;;5047893;28;20032;-77
2022/10/11 10:47:58;;;;;;;7.05;2.55;;;;;;;;;;5050784;28;20604;-77
2022/10/11 10:50:40;;;;;;;13.50;3.97;;;;;;;;;;5065547;28;20033;-78
2022/10/11 10:53:25;;;;;;;6.15;3.25;;;;;;;;;;5063952;28;20027;-78
2022/10/11 10:56:21;;;;;;;9.57;2.95;;;;;;;;;;5040519;28;20698;-76
2022/10/11 10:58:47;;;;;;;10.80;3.30;;;;;;;;;;5045792;28;20510;-76
2022/10/11 11:01:26;;;;;;;8.75;3.10;;;;;;;;;;5059196;28;20109;-76
2022/10/11 11:04:09;;;;;;;9.68;3.05;;;;;;;;;;5057522;28;20033;-76
2022/10/11 11:06:36;;;;;;;4.93;2.38;;;;;;;;;;5054327;28;20074;-75
2022/10/11 11:09:20;;;;;;;12.35;3.30;;;;;;;;;;5071494;28;20040;-77
2022/10/11 11:11:58;;;;;;;9.83;3.10;;;;;;;;;;5062965;28;20037;-76
2022/10/11 11:14:43;;;;;;;7.47;2.30;;;;;;;;;;5062452;28;20547;-76
2022/10/11 11:17:19;;;;;;;10.15;3.05;;;;;;;;;;5056633;28;20025;-77
2022/10/11 11:19:55;;;;;;;6.95;2.70;;;;;;;;;;5055789;28;20560;-77
2022/10/11 11:22:21;;;;;;;7.20;2.97;;;;;;;;;;5075921;28;20045;-76
2022/10/11 11:24:51;;;;;;;8.23;2.38;;;;;;;;;;5049007;28;20032;-76
2022/10/11 11:27:17;;;;;;;5.65;3.05;;;;;;;;;;5048819;28;20074;-76
2022/10/11 11:29:43;;;;;;;12.30;2.70;;;;;;;;;;5058662;28;20025;-77
2022/10/11 11:32:32;;;;;;;10.77;2.40;;;;;;;;;;5047505;28;20040;-76
2022/10/11 11:35:01;;;;;;;8.82;2.80;;;;;;;;;;5060379;28;20040;-77
2022/10/11 11:37:35;;;;;;;7.88;3.13;;;;;;;;;;5084925;28;20416;-77
2022/10/11 11:40:07;;;;;;;6.10;2.85;;;;;;;;;;5064050;28;20044;-78
2022/10/11 11:42:35;;;;;;;6.45;2.35;;;;;;;;;;5054351;28;20416;-77
2022/10/11 11:45:12;;;;;;;5.60;2.55;;;;;;;;;;5067182;28;20024;-77
2022/10/11 11:47:40;;;;;;;5.95;2.67;;;;;;;;;;5070268;28;20033;-78
2022/10/11 11:50:21;;;;;;;8.90;2.65;;;;;;;;;;5050400;28;20048;-77
2022/10/11 11:52:50;;;;;;;7.53;3.00;;;;;;;;;;5050366;28;20035;-77
2022/10/11 11:55:23;;;;;;;10.77;2.55;;;;;;;;;;5069390;28;20091;-76
2022/10/11 11:57:58;;;;;;;10.02;2.75;;;;;;;;;;5049158;28;20027;-77
2022/10/11 12:00:24;;;;;;;;;;;;;;;;;;5074366;28;20058;-77
2022/10/11 12:02:53;;;;;;;6.60;2.60;;;;;;;;;;5070638;28;19912;-78
2022/10/11 12:05:21;;;;;;;5.43;2.80;;;;;;;;;;5054130;28;20466;-78
2022/10/11 12:07:47;;;;;;;8.10;3.22;;;;;;;;;;5068414;28;20032;-78
2022/10/11 12:10:15;;;;;;;5.57;2.72;;;;;;;;;;5067600;28;20048;-78
2022/10/11 12:12:41;;;;;;;6.13;2.65;;;;;;;;;;5064258;28;20102;-77
2022/10/11 12:15:08;;;;;;;5.65;2.80;;;;;;;;;;5050720;28;20067;-75
2022/10/11 12:17:34;;;;;;;9.27;2.67;;;;;;;;;;5053086;28;20097;-79
2022/10/11 12:20:19;;;;;;;6.85;2.50;;;;;;;;;;5071714;28;20377;-77
2022/10/11 12:23:00;;;;;;;7.25;2.88;;;;;;;;;;5062497;28;20120;-77
2022/10/11 12:25:27;;;;;;;7.80;2.80;;;;;;;;;;5068072;28;20490;-76
2022/10/11 12:27:54;;;;;;;5.95;3.30;;;;;;;;;;5052354;28;20025;-76
2022/10/11 12:30:39;;;;;;;4.85;3.33;;;;;;;;;;5085422;28;20047;-77
2022/10/11 12:33:12;;;;;;;8.50;3.17;;;;;;;;;;5058508;28;20033;-76
2022/10/11 12:35:41;;;;;;;7.43;2.95;;;;;;;;;;5051448;28;20267;-77
2022/10/11 12:38:27;;;;;;;9.80;3.38;;;;;;;;;;5058304;28;20052;-77
2022/10/11 12:40:55;;;;;;;4.93;2.83;;;;;;;;;;5071182;28;20024;-75
2022/10/11 12:43:30;;;;;;;4.32;2.22;;;;;;;;;;5073833;28;20561;-76
2022/10/11 12:45:56;;;;;;;5.93;2.40;;;;;;;;;;5074353;28;20261;-74
2022/10/11 12:48:25;;;;;;;7.53;3.03;;;;;;;;;;5049550;28;20029;-75
2022/10/11 12:50:56;;;;;;;5.50;2.17;;;;;;;;;;5071306;28;20032;-76
2022/10/11 12:53:29;;;;;;;9.48;2.33;;;;;;;;;;5074668;28;20029;-75
2022/10/11 12:55:55;;;;;;;5.53;2.45;;;;;;;;;;5057053;28;20086;-74
2022/10/11 12:58:23;;;;;;;9.50;2.65;;;;;;;;;;5067128;28;20052;-75
2022/10/11 13:00:54;;;;;;;7.70;2.55;;;;;;;;;;5059637;28;20060;-75
2022/10/11 13:03:30;;;;;;;5.70;3.40;;;;;;;;;;5073390;28;20029;-76
2022/10/11 13:05:57;;;;;;;5.35;2.58;;;;;;;;;;5063033;28;20539;-77
2022/10/11 13:08:34;;;;;;;6.40;3.03;;;;;;;;;;5058488;28;20043;-77
2022/10/11 13:11:02;;;;;;;8.82;3.65;;;;;;;;;;5065764;28;20028;-78
2022/10/11 13:13:28;;;;;;;8.27;2.58;;;;;;;;;;5052388;28;20017;-74
2022/10/11 13:15:55;;;;;;;6.28;2.65;;;;;;;;;;5063674;28;20031;-74
2022/10/11 13:18:23;;;;;;;5.15;2.50;;;;;;;;;;5065977;28;20050;-75
2022/10/11 13:20:50;;;;;;;6.93;2.40;;;;;;;;;;5057997;28;20066;-75
2022/10/11 13:23:23;;;;;;;5.68;2.65;;;;;;;;;;5042732;28;20049;-76
2022/10/11 13:25:50;;;;;;;5.32;2.50;;;;;;;;;;5065357;28;20048;-76
2022/10/11 13:28:17;;;;;;;7.95;3.28;;;;;;;;;;5053614;28;20028;-75
2022/10/11 13:30:45;;;;;;;18.52;3.35;;;;;;;;;;5050142;28;20029;-76
2022/10/11 13:33:19;;;;;;;6.95;2.60;;;;;;;;;;5063647;28;20404;-76
2022/10/11 13:35:45;;;;;;;4.80;2.60;;;;;;;;;;5065899;28;20392;-77
2022/10/11 13:38:17;;;;;;;9.55;4.70;;;;;;;;;;5053206;28;22181;-76
2022/10/11 13:40:44;;;;;;;5.13;2.35;;;;;;;;;;5067778;28;20020;-75
2022/10/11 13:43:12;;;;;;;4.45;2.28;;;;;;;;;;5065034;28;20025;-76
2022/10/11 13:45:40;;;;;;;6.47;2.58;;;;;;;;;;5051366;28;20441;-75
2022/10/11 13:48:13;;;;;;;7.22;2.70;;;;;;;;;;5048369;28;20032;-77
2022/10/11 13:50:49;;;;;;;8.82;3.10;;;;;;;;;;5060017;28;20626;-76
2022/10/11 13:53:16;;;;;;;6.07;2.60;;;;;;;;;;5041797;28;20025;-75
2022/10/11 13:55:43;;;;;;;5.25;2.45;;;;;;;;;;5052301;28;20028;-78
2022/10/11 13:58:10;;;;;;;7.78;2.97;;;;;;;;;;5060625;28;20021;-76
2022/10/11 14:00:37;;;;;;;7.60;2.88;;;;;;;;;;5063380;28;20021;-78
2022/10/11 14:03:13;;;;;;;4.90;2.63;;;;;;;;;;5062751;28;20032;-76
2022/10/11 14:05:39;;;;;;;;;;;;;;;;;;5050743;28;20032;-76
2022/10/11 14:08:20;;;;;;;11.38;2.40;;;;;;;;;;5043469;28;19919;-76
2022/10/11 14:10:47;;;;;;;10.45;2.92;;;;;;;;;;5051356;28;20020;-77
2022/10/11 14:13:24;;;;;;;12.52;8.57;;;;;;;;;;5047259;28;20043;-77
2022/10/11 14:15:59;;;;;;;5.32;2.72;;;;;;;;;;5068717;28;20363;-75
2022/10/11 14:18:38;;;;;;;12.35;3.88;;;;;;;;;;5057529;28;20032;-76
2022/10/11 14:21:19;;;;;;;7.50;4.13;;;;;;;;;;5068825;28;20020;-75
2022/10/11 14:23:56;;;;;;;10.27;3.90;;;;;;;;;;5063560;28;20048;-76
2022/10/11 14:26:23;;;;;;;9.75;3.88;;;;;;;;;;5051016;28;20039;-74
2022/10/11 14:28:51;;;;;;;7.78;3.05;;;;;;;;;;5048135;28;20027;-74
2022/10/11 14:31:17;;;;;;;6.47;3.13;;;;;;;;;;5049708;28;20119;-76
2022/10/11 14:33:43;;;;;;;8.60;2.97;;;;;;;;;;5052200;28;20488;-76
2022/10/11 14:36:09;;;;;;;8.25;2.65;;;;;;;;;;5069765;28;20021;-75
2022/10/11 14:38:35;;;;;;;8.90;3.50;;;;;;;;;;5063164;28;20082;-75
2022/10/11 14:41:01;;;;;;;4.57;2.50;;;;;;;;;;5066563;28;20072;-76
2022/10/11 14:43:27;;;;;;;8.75;3.28;;;;;;;;;;5055475;28;20023;-75
2022/10/11 14:45:53;;;;;;;8.45;2.90;;;;;;;;;;5076167;28;20020;-76
2022/10/11 14:48:19;;;;;;;9.32;2.67;;;;;;;;;;5064477;28;20093;-76
2022/10/11 14:50:51;;;;;;;11.40;3.30;;;;;;;;;;5055747;28;20162;-77